sensor_id;sensor_type;location;lat;lon;timestamp;P1;durP1;ratioP1;P2;durP2;ratioP2
62724;SDS011;49026;52.600;4.694;2023-04-30T00:00:58;25.17;;;10.98;;
62724;SDS011;49026;52.600;4.694;2023-04-30T00:03:23;16.77;;;10.65;;
62724;SDS011;49026;52.600;4.694;2023-04-30T00:05:49;21.23;;;11.07;;
62724;SDS011;49026;52.600;4.694;2023-04-30T00:08:15;25.08;;;12.30;;
62724;SDS011;49026;52.600;4.694;2023-04-30T00:10:43;28.90;;;12.75;;
62724;SDS011;49026;52.600;4.694;2023-04-30T00:13:08;25.48;;;13.10;;
62724;SDS011;49026;52.600;4.694;2023-04-30T00:15:34;27.42;;;13.38;;
62724;SDS011;49026;52.600;4.694;2023-04-30T00:18:02;19.38;;;11.55;;
62724;SDS011;49026;52.600;4.694;2023-04-30T00:20:30;19.55;;;11.07;;
62724;SDS011;49026;52.600;4.694;2023-04-30T00:22:56;24.25;;;11.50;;
62724;SDS011;49026;52.600;4.694;2023-04-30T00:25:21;27.55;;;11.50;;
62724;SDS011;49026;52.600;4.694;2023-04-30T00:27:48;24.67;;;10.95;;
62724;SDS011;49026;52.600;4.694;2023-04-30T00:30:14;19.33;;;10.52;;
62724;SDS011;49026;52.600;4.694;2023-04-30T00:32:39;19.92;;;11.23;;
62724;SDS011;49026;52.600;4.694;2023-04-30T00:35:04;21.27;;;11.80;;
62724;SDS011;49026;52.600;4.694;2023-04-30T00:37:30;22.73;;;10.73;;
62724;SDS011;49026;52.600;4.694;2023-04-30T00:39:56;26.20;;;11.18;;
62724;SDS011;49026;52.600;4.694;2023-04-30T00:42:21;19.48;;;10.85;;
62724;SDS011;49026;52.600;4.694;2023-04-30T00:44:48;34.17;;;11.63;;
62724;SDS011;49026;52.600;4.694;2023-04-30T00:47:14;25.33;;;11.70;;
62724;SDS011;49026;52.600;4.694;2023-04-30T00:49:39;24.40;;;12.43;;
62724;SDS011;49026;52.600;4.694;2023-04-30T00:52:04;25.92;;;12.02;;
62724;SDS011;49026;52.600;4.694;2023-04-30T00:54:30;23.02;;;11.27;;
62724;SDS011;49026;52.600;4.694;2023-04-30T00:56:57;22.10;;;10.48;;
62724;SDS011;49026;52.600;4.694;2023-04-30T00:59:23;20.58;;;11.00;;
62724;SDS011;49026;52.600;4.694;2023-04-30T01:01:53;28.95;;;11.93;;
62724;SDS011;49026;52.600;4.694;2023-04-30T01:04:20;20.52;;;11.07;;
62724;SDS011;49026;52.600;4.694;2023-04-30T01:06:48;20.10;;;10.88;;
62724;SDS011;49026;52.600;4.694;2023-04-30T01:09:14;20.98;;;10.63;;
62724;SDS011;49026;52.600;4.694;2023-04-30T01:14:29;22.33;;;10.95;;
62724;SDS011;49026;52.600;4.694;2023-04-30T01:17:03;17.25;;;10.35;;
62724;SDS011;49026;52.600;4.694;2023-04-30T01:19:39;21.90;;;9.27;;
62724;SDS011;49026;52.600;4.694;2023-04-30T01:22:08;21.52;;;9.88;;
62724;SDS011;49026;52.600;4.694;2023-04-30T01:30:24;20.00;;;11.00;;
62724;SDS011;49026;52.600;4.694;2023-04-30T01:32:50;22.38;;;11.75;;
62724;SDS011;49026;52.600;4.694;2023-04-30T01:35:16;24.42;;;10.73;;
62724;SDS011;49026;52.600;4.694;2023-04-30T01:37:44;24.33;;;10.38;;
62724;SDS011;49026;52.600;4.694;2023-04-30T01:40:38;20.10;;;10.65;;
62724;SDS011;49026;52.600;4.694;2023-04-30T01:43:19;24.20;;;10.20;;
62724;SDS011;49026;52.600;4.694;2023-04-30T01:51:20;23.85;;;10.73;;
62724;SDS011;49026;52.600;4.694;2023-04-30T01:53:51;19.52;;;9.43;;
62724;SDS011;49026;52.600;4.694;2023-04-30T01:58:59;13.70;;;7.43;;
62724;SDS011;49026;52.600;4.694;2023-04-30T02:03:52;15.68;;;9.07;;
62724;SDS011;49026;52.600;4.694;2023-04-30T02:06:18;21.55;;;10.48;;
62724;SDS011;49026;52.600;4.694;2023-04-30T02:08:46;28.83;;;11.60;;
62724;SDS011;49026;52.600;4.694;2023-04-30T02:11:11;27.00;;;11.95;;
62724;SDS011;49026;52.600;4.694;2023-04-30T02:13:36;21.58;;;10.82;;
62724;SDS011;49026;52.600;4.694;2023-04-30T02:16:01;24.88;;;9.77;;
62724;SDS011;49026;52.600;4.694;2023-04-30T02:18:28;24.80;;;11.43;;
62724;SDS011;49026;52.600;4.694;2023-04-30T02:20:53;21.90;;;10.90;;
62724;SDS011;49026;52.600;4.694;2023-04-30T02:23:18;25.33;;;12.23;;
62724;SDS011;49026;52.600;4.694;2023-04-30T02:25:46;21.50;;;9.43;;
62724;SDS011;49026;52.600;4.694;2023-04-30T02:28:11;26.63;;;11.02;;
62724;SDS011;49026;52.600;4.694;2023-04-30T02:30:38;21.02;;;10.07;;
62724;SDS011;49026;52.600;4.694;2023-04-30T02:33:06;22.42;;;11.40;;
62724;SDS011;49026;52.600;4.694;2023-04-30T02:35:31;20.83;;;10.95;;
62724;SDS011;49026;52.600;4.694;2023-04-30T02:37:59;24.48;;;11.70;;
62724;SDS011;49026;52.600;4.694;2023-04-30T02:40:26;24.65;;;11.40;;
62724;SDS011;49026;52.600;4.694;2023-04-30T02:42:54;22.33;;;10.73;;
62724;SDS011;49026;52.600;4.694;2023-04-30T02:45:20;24.25;;;10.82;;
62724;SDS011;49026;52.600;4.694;2023-04-30T02:47:46;16.67;;;9.98;;
62724;SDS011;49026;52.600;4.694;2023-04-30T02:50:11;17.20;;;9.15;;
62724;SDS011;49026;52.600;4.694;2023-04-30T02:52:36;22.60;;;10.38;;
62724;SDS011;49026;52.600;4.694;2023-04-30T02:55:02;24.15;;;10.15;;
62724;SDS011;49026;52.600;4.694;2023-04-30T02:57:28;26.58;;;10.68;;
62724;SDS011;49026;52.600;4.694;2023-04-30T02:59:53;27.75;;;11.30;;
62724;SDS011;49026;52.600;4.694;2023-04-30T03:02:18;26.35;;;10.63;;
62724;SDS011;49026;52.600;4.694;2023-04-30T03:04:45;17.58;;;9.05;;
62724;SDS011;49026;52.600;4.694;2023-04-30T03:07:10;20.33;;;9.93;;
62724;SDS011;49026;52.600;4.694;2023-04-30T03:09:36;22.95;;;11.00;;
62724;SDS011;49026;52.600;4.694;2023-04-30T03:12:03;20.25;;;9.90;;
62724;SDS011;49026;52.600;4.694;2023-04-30T03:14:31;23.10;;;10.38;;
62724;SDS011;49026;52.600;4.694;2023-04-30T03:16:59;18.60;;;9.95;;
62724;SDS011;49026;52.600;4.694;2023-04-30T03:19:25;23.50;;;9.45;;
62724;SDS011;49026;52.600;4.694;2023-04-30T03:21:50;20.40;;;9.13;;
62724;SDS011;49026;52.600;4.694;2023-04-30T03:24:16;21.13;;;8.30;;
62724;SDS011;49026;52.600;4.694;2023-04-30T03:26:42;17.33;;;8.88;;
62724;SDS011;49026;52.600;4.694;2023-04-30T03:29:07;25.48;;;11.00;;
62724;SDS011;49026;52.600;4.694;2023-04-30T03:31:33;25.20;;;10.05;;
62724;SDS011;49026;52.600;4.694;2023-04-30T03:34:00;23.20;;;10.70;;
62724;SDS011;49026;52.600;4.694;2023-04-30T03:36:26;23.52;;;10.60;;
62724;SDS011;49026;52.600;4.694;2023-04-30T03:38:51;16.55;;;8.35;;
62724;SDS011;49026;52.600;4.694;2023-04-30T03:41:16;17.27;;;9.68;;
62724;SDS011;49026;52.600;4.694;2023-04-30T03:43:42;17.70;;;9.57;;
62724;SDS011;49026;52.600;4.694;2023-04-30T03:46:07;17.58;;;10.48;;
62724;SDS011;49026;52.600;4.694;2023-04-30T03:48:35;19.58;;;10.70;;
62724;SDS011;49026;52.600;4.694;2023-04-30T03:51:00;21.65;;;10.85;;
62724;SDS011;49026;52.600;4.694;2023-04-30T03:53:28;20.75;;;10.32;;
62724;SDS011;49026;52.600;4.694;2023-04-30T03:55:54;19.13;;;10.45;;
62724;SDS011;49026;52.600;4.694;2023-04-30T03:58:22;21.30;;;10.20;;
62724;SDS011;49026;52.600;4.694;2023-04-30T04:00:47;18.48;;;9.60;;
62724;SDS011;49026;52.600;4.694;2023-04-30T04:03:15;16.50;;;9.43;;
62724;SDS011;49026;52.600;4.694;2023-04-30T04:05:41;19.23;;;10.50;;
62724;SDS011;49026;52.600;4.694;2023-04-30T04:08:06;17.13;;;10.30;;
62724;SDS011;49026;52.600;4.694;2023-04-30T04:10:32;21.90;;;9.02;;
62724;SDS011;49026;52.600;4.694;2023-04-30T04:12:58;22.77;;;9.70;;
62724;SDS011;49026;52.600;4.694;2023-04-30T04:15:26;18.30;;;9.05;;
62724;SDS011;49026;52.600;4.694;2023-04-30T04:17:51;23.77;;;9.23;;
62724;SDS011;49026;52.600;4.694;2023-04-30T04:20:17;20.88;;;9.68;;
62724;SDS011;49026;52.600;4.694;2023-04-30T04:22:42;18.00;;;9.07;;
62724;SDS011;49026;52.600;4.694;2023-04-30T04:25:08;19.20;;;9.85;;
62724;SDS011;49026;52.600;4.694;2023-04-30T04:27:34;20.38;;;10.23;;
62724;SDS011;49026;52.600;4.694;2023-04-30T04:30:04;24.92;;;11.73;;
62724;SDS011;49026;52.600;4.694;2023-04-30T04:32:30;19.58;;;11.45;;
62724;SDS011;49026;52.600;4.694;2023-04-30T04:34:56;24.02;;;11.38;;
62724;SDS011;49026;52.600;4.694;2023-04-30T04:37:24;23.88;;;11.82;;
62724;SDS011;49026;52.600;4.694;2023-04-30T04:39:49;22.05;;;9.02;;
62724;SDS011;49026;52.600;4.694;2023-04-30T04:42:17;22.00;;;10.90;;
62724;SDS011;49026;52.600;4.694;2023-04-30T04:44:43;18.50;;;9.30;;
62724;SDS011;49026;52.600;4.694;2023-04-30T04:47:09;21.58;;;11.52;;
62724;SDS011;49026;52.600;4.694;2023-04-30T04:49:36;24.27;;;11.13;;
62724;SDS011;49026;52.600;4.694;2023-04-30T04:52:03;24.33;;;11.40;;
62724;SDS011;49026;52.600;4.694;2023-04-30T04:54:29;21.42;;;12.25;;
62724;SDS011;49026;52.600;4.694;2023-04-30T04:56:55;28.40;;;11.80;;
62724;SDS011;49026;52.600;4.694;2023-04-30T04:59:20;21.77;;;9.80;;
62724;SDS011;49026;52.600;4.694;2023-04-30T05:01:50;23.85;;;11.60;;
62724;SDS011;49026;52.600;4.694;2023-04-30T05:04:15;19.90;;;10.38;;
62724;SDS011;49026;52.600;4.694;2023-04-30T05:06:41;26.27;;;11.20;;
62724;SDS011;49026;52.600;4.694;2023-04-30T05:09:09;19.27;;;9.95;;
62724;SDS011;49026;52.600;4.694;2023-04-30T05:11:34;22.25;;;10.40;;
62724;SDS011;49026;52.600;4.694;2023-04-30T05:14:00;19.55;;;9.07;;
62724;SDS011;49026;52.600;4.694;2023-04-30T05:16:25;13.48;;;6.65;;
62724;SDS011;49026;52.600;4.694;2023-04-30T05:18:50;12.32;;;6.15;;
62724;SDS011;49026;52.600;4.694;2023-04-30T05:21:16;10.65;;;5.88;;
62724;SDS011;49026;52.600;4.694;2023-04-30T05:23:42;11.23;;;5.97;;
62724;SDS011;49026;52.600;4.694;2023-04-30T05:26:08;10.15;;;6.15;;
62724;SDS011;49026;52.600;4.694;2023-04-30T05:28:35;9.63;;;6.03;;
62724;SDS011;49026;52.600;4.694;2023-04-30T05:31:01;11.63;;;6.10;;
62724;SDS011;49026;52.600;4.694;2023-04-30T05:33:26;12.50;;;5.93;;
62724;SDS011;49026;52.600;4.694;2023-04-30T05:35:51;11.90;;;5.47;;
62724;SDS011;49026;52.600;4.694;2023-04-30T05:38:17;10.40;;;6.05;;
62724;SDS011;49026;52.600;4.694;2023-04-30T05:40:42;12.05;;;6.00;;
62724;SDS011;49026;52.600;4.694;2023-04-30T05:43:07;8.55;;;4.45;;
62724;SDS011;49026;52.600;4.694;2023-04-30T05:45:33;9.88;;;4.85;;
62724;SDS011;49026;52.600;4.694;2023-04-30T05:47:58;10.82;;;5.00;;
62724;SDS011;49026;52.600;4.694;2023-04-30T05:50:25;9.82;;;5.20;;
62724;SDS011;49026;52.600;4.694;2023-04-30T05:52:51;12.05;;;5.45;;
62724;SDS011;49026;52.600;4.694;2023-04-30T05:55:18;11.77;;;6.45;;
62724;SDS011;49026;52.600;4.694;2023-04-30T05:57:44;11.15;;;5.63;;
62724;SDS011;49026;52.600;4.694;2023-04-30T06:00:14;9.48;;;5.95;;
62724;SDS011;49026;52.600;4.694;2023-04-30T06:02:40;11.77;;;5.53;;
62724;SDS011;49026;52.600;4.694;2023-04-30T06:05:07;7.95;;;5.15;;
62724;SDS011;49026;52.600;4.694;2023-04-30T06:07:33;12.00;;;4.95;;
62724;SDS011;49026;52.600;4.694;2023-04-30T06:09:58;8.02;;;4.40;;
62724;SDS011;49026;52.600;4.694;2023-04-30T06:12:24;8.75;;;4.72;;
62724;SDS011;49026;52.600;4.694;2023-04-30T06:14:50;10.23;;;5.43;;
62724;SDS011;49026;52.600;4.694;2023-04-30T06:17:15;8.88;;;4.55;;
62724;SDS011;49026;52.600;4.694;2023-04-30T06:19:43;9.10;;;4.80;;
62724;SDS011;49026;52.600;4.694;2023-04-30T06:22:08;9.63;;;4.93;;
62724;SDS011;49026;52.600;4.694;2023-04-30T06:24:34;5.65;;;2.90;;
62724;SDS011;49026;52.600;4.694;2023-04-30T06:27:01;5.10;;;3.00;;
62724;SDS011;49026;52.600;4.694;2023-04-30T06:29:29;9.10;;;4.72;;
62724;SDS011;49026;52.600;4.694;2023-04-30T06:31:54;6.38;;;3.78;;
62724;SDS011;49026;52.600;4.694;2023-04-30T06:34:20;8.55;;;4.63;;
62724;SDS011;49026;52.600;4.694;2023-04-30T06:36:45;10.48;;;5.00;;
62724;SDS011;49026;52.600;4.694;2023-04-30T06:41:38;10.27;;;4.63;;
62724;SDS011;49026;52.600;4.694;2023-04-30T06:44:07;5.25;;;3.35;;
62724;SDS011;49026;52.600;4.694;2023-04-30T06:46:33;10.93;;;4.85;;
62724;SDS011;49026;52.600;4.694;2023-04-30T06:48:58;8.13;;;4.55;;
62724;SDS011;49026;52.600;4.694;2023-04-30T06:51:24;11.15;;;4.40;;
62724;SDS011;49026;52.600;4.694;2023-04-30T06:53:49;7.93;;;3.95;;
62724;SDS011;49026;52.600;4.694;2023-04-30T06:56:17;9.23;;;4.28;;
62724;SDS011;49026;52.600;4.694;2023-04-30T06:58:42;7.97;;;4.38;;
62724;SDS011;49026;52.600;4.694;2023-04-30T07:01:09;8.93;;;4.38;;
62724;SDS011;49026;52.600;4.694;2023-04-30T07:03:34;9.50;;;3.95;;
62724;SDS011;49026;52.600;4.694;2023-04-30T07:06:00;5.30;;;2.97;;
62724;SDS011;49026;52.600;4.694;2023-04-30T07:08:25;7.72;;;4.05;;
62724;SDS011;49026;52.600;4.694;2023-04-30T07:10:53;9.80;;;4.43;;
62724;SDS011;49026;52.600;4.694;2023-04-30T07:13:19;10.02;;;5.50;;
62724;SDS011;49026;52.600;4.694;2023-04-30T07:15:44;8.15;;;4.30;;
62724;SDS011;49026;52.600;4.694;2023-04-30T07:18:09;10.85;;;4.75;;
62724;SDS011;49026;52.600;4.694;2023-04-30T07:20:35;5.95;;;3.00;;
62724;SDS011;49026;52.600;4.694;2023-04-30T07:23:00;5.70;;;3.45;;
62724;SDS011;49026;52.600;4.694;2023-04-30T07:25:26;5.00;;;3.28;;
62724;SDS011;49026;52.600;4.694;2023-04-30T07:27:54;5.63;;;3.42;;
62724;SDS011;49026;52.600;4.694;2023-04-30T07:30:19;7.07;;;3.60;;
62724;SDS011;49026;52.600;4.694;2023-04-30T07:32:46;7.40;;;3.65;;
62724;SDS011;49026;52.600;4.694;2023-04-30T07:35:12;6.47;;;3.55;;
62724;SDS011;49026;52.600;4.694;2023-04-30T07:37:38;6.13;;;3.13;;
62724;SDS011;49026;52.600;4.694;2023-04-30T07:40:06;6.65;;;3.53;;
62724;SDS011;49026;52.600;4.694;2023-04-30T07:42:36;7.25;;;3.53;;
62724;SDS011;49026;52.600;4.694;2023-04-30T07:45:02;8.90;;;3.90;;
62724;SDS011;49026;52.600;4.694;2023-04-30T07:47:28;8.00;;;3.88;;
62724;SDS011;49026;52.600;4.694;2023-04-30T07:49:54;7.43;;;4.20;;
62724;SDS011;49026;52.600;4.694;2023-04-30T07:52:20;5.60;;;3.30;;
62724;SDS011;49026;52.600;4.694;2023-04-30T07:54:45;6.72;;;3.40;;
62724;SDS011;49026;52.600;4.694;2023-04-30T07:57:10;6.63;;;3.60;;
62724;SDS011;49026;52.600;4.694;2023-04-30T07:59:36;5.70;;;2.10;;
62724;SDS011;49026;52.600;4.694;2023-04-30T08:02:02;8.40;;;3.35;;
62724;SDS011;49026;52.600;4.694;2023-04-30T08:04:30;7.47;;;2.50;;
62724;SDS011;49026;52.600;4.694;2023-04-30T08:06:55;6.78;;;3.33;;
62724;SDS011;49026;52.600;4.694;2023-04-30T08:09:20;6.90;;;2.97;;
62724;SDS011;49026;52.600;4.694;2023-04-30T08:11:45;5.78;;;2.80;;
62724;SDS011;49026;52.600;4.694;2023-04-30T08:14:11;6.30;;;3.33;;
62724;SDS011;49026;52.600;4.694;2023-04-30T08:16:36;7.43;;;3.08;;
62724;SDS011;49026;52.600;4.694;2023-04-30T08:19:01;4.85;;;3.10;;
62724;SDS011;49026;52.600;4.694;2023-04-30T08:21:28;6.45;;;2.63;;
62724;SDS011;49026;52.600;4.694;2023-04-30T08:23:53;8.82;;;3.30;;
62724;SDS011;49026;52.600;4.694;2023-04-30T08:26:19;7.82;;;3.25;;
62724;SDS011;49026;52.600;4.694;2023-04-30T08:28:45;8.77;;;3.15;;
62724;SDS011;49026;52.600;4.694;2023-04-30T08:31:11;7.88;;;2.85;;
62724;SDS011;49026;52.600;4.694;2023-04-30T08:33:36;7.35;;;3.50;;
62724;SDS011;49026;52.600;4.694;2023-04-30T08:36:02;5.82;;;2.67;;
62724;SDS011;49026;52.600;4.694;2023-04-30T08:38:27;10.73;;;3.38;;
62724;SDS011;49026;52.600;4.694;2023-04-30T08:40:58;6.05;;;3.08;;
62724;SDS011;49026;52.600;4.694;2023-04-30T08:43:33;7.50;;;2.90;;
62724;SDS011;49026;52.600;4.694;2023-04-30T08:46:02;4.72;;;3.33;;
62724;SDS011;49026;52.600;4.694;2023-04-30T08:48:31;6.70;;;3.20;;
62724;SDS011;49026;52.600;4.694;2023-04-30T08:50:59;6.07;;;2.80;;
62724;SDS011;49026;52.600;4.694;2023-04-30T08:53:26;5.10;;;2.83;;
62724;SDS011;49026;52.600;4.694;2023-04-30T08:55:51;8.73;;;3.10;;
62724;SDS011;49026;52.600;4.694;2023-04-30T08:58:16;5.63;;;2.80;;
62724;SDS011;49026;52.600;4.694;2023-04-30T09:00:44;6.07;;;3.08;;
62724;SDS011;49026;52.600;4.694;2023-04-30T09:03:09;4.97;;;2.78;;
62724;SDS011;49026;52.600;4.694;2023-04-30T09:05:35;6.53;;;2.83;;
62724;SDS011;49026;52.600;4.694;2023-04-30T09:08:02;5.10;;;2.60;;
62724;SDS011;49026;52.600;4.694;2023-04-30T09:10:30;5.07;;;2.53;;
62724;SDS011;49026;52.600;4.694;2023-04-30T09:15:25;7.68;;;2.80;;
62724;SDS011;49026;52.600;4.694;2023-04-30T09:18:04;10.20;;;3.90;;
62724;SDS011;49026;52.600;4.694;2023-04-30T09:20:54;6.70;;;2.60;;
62724;SDS011;49026;52.600;4.694;2023-04-30T09:25:48;5.82;;;2.50;;
62724;SDS011;49026;52.600;4.694;2023-04-30T09:28:16;6.18;;;2.50;;
62724;SDS011;49026;52.600;4.694;2023-04-30T09:30:42;6.72;;;2.65;;
62724;SDS011;49026;52.600;4.694;2023-04-30T09:33:08;5.80;;;2.00;;
62724;SDS011;49026;52.600;4.694;2023-04-30T09:35:36;4.78;;;2.13;;
62724;SDS011;49026;52.600;4.694;2023-04-30T09:38:06;6.22;;;2.47;;
62724;SDS011;49026;52.600;4.694;2023-04-30T09:40:33;4.90;;;1.92;;
62724;SDS011;49026;52.600;4.694;2023-04-30T09:43:00;5.03;;;2.22;;
62724;SDS011;49026;52.600;4.694;2023-04-30T09:45:25;3.45;;;1.85;;
62724;SDS011;49026;52.600;4.694;2023-04-30T09:47:53;4.80;;;2.30;;
62724;SDS011;49026;52.600;4.694;2023-04-30T09:50:25;5.53;;;2.22;;
62724;SDS011;49026;52.600;4.694;2023-04-30T09:52:53;5.50;;;1.98;;
62724;SDS011;49026;52.600;4.694;2023-04-30T09:55:35;2.72;;;1.80;;
62724;SDS011;49026;52.600;4.694;2023-04-30T09:58:07;3.65;;;1.98;;
62724;SDS011;49026;52.600;4.694;2023-04-30T10:00:35;3.45;;;1.95;;
62724;SDS011;49026;52.600;4.694;2023-04-30T10:03:08;9.65;;;2.92;;
62724;SDS011;49026;52.600;4.694;2023-04-30T10:05:47;4.55;;;2.33;;
62724;SDS011;49026;52.600;4.694;2023-04-30T10:08:17;3.47;;;2.10;;
62724;SDS011;49026;52.600;4.694;2023-04-30T10:10:58;6.03;;;2.40;;
62724;SDS011;49026;52.600;4.694;2023-04-30T10:13:35;6.40;;;2.47;;
62724;SDS011;49026;52.600;4.694;2023-04-30T10:16:08;6.20;;;2.17;;
62724;SDS011;49026;52.600;4.694;2023-04-30T10:18:42;4.88;;;1.85;;
62724;SDS011;49026;52.600;4.694;2023-04-30T10:21:11;4.88;;;2.20;;
62724;SDS011;49026;52.600;4.694;2023-04-30T10:23:38;6.00;;;2.40;;
62724;SDS011;49026;52.600;4.694;2023-04-30T10:26:07;4.60;;;2.45;;
62724;SDS011;49026;52.600;4.694;2023-04-30T10:28:35;4.60;;;2.47;;
62724;SDS011;49026;52.600;4.694;2023-04-30T10:31:01;2.97;;;1.55;;
62724;SDS011;49026;52.600;4.694;2023-04-30T10:33:39;5.68;;;2.55;;
62724;SDS011;49026;52.600;4.694;2023-04-30T10:36:13;5.40;;;2.70;;
62724;SDS011;49026;52.600;4.694;2023-04-30T10:38:48;5.93;;;2.20;;
62724;SDS011;49026;52.600;4.694;2023-04-30T10:41:15;5.47;;;2.17;;
62724;SDS011;49026;52.600;4.694;2023-04-30T10:43:47;6.88;;;2.97;;
62724;SDS011;49026;52.600;4.694;2023-04-30T10:46:22;6.97;;;2.60;;
62724;SDS011;49026;52.600;4.694;2023-04-30T10:48:49;6.82;;;2.60;;
62724;SDS011;49026;52.600;4.694;2023-04-30T10:51:18;2.97;;;1.87;;
62724;SDS011;49026;52.600;4.694;2023-04-30T10:53:48;6.68;;;2.70;;
62724;SDS011;49026;52.600;4.694;2023-04-30T10:56:28;6.30;;;2.75;;
62724;SDS011;49026;52.600;4.694;2023-04-30T10:58:57;5.95;;;2.35;;
62724;SDS011;49026;52.600;4.694;2023-04-30T11:01:24;9.23;;;2.47;;
62724;SDS011;49026;52.600;4.694;2023-04-30T11:04:06;4.53;;;2.25;;
62724;SDS011;49026;52.600;4.694;2023-04-30T11:12:13;5.90;;;2.38;;
62724;SDS011;49026;52.600;4.694;2023-04-30T11:15:05;4.70;;;2.55;;
62724;SDS011;49026;52.600;4.694;2023-04-30T11:17:31;6.28;;;2.38;;
62724;SDS011;49026;52.600;4.694;2023-04-30T11:19:58;3.88;;;2.30;;
62724;SDS011;49026;52.600;4.694;2023-04-30T11:22:27;5.95;;;1.98;;
62724;SDS011;49026;52.600;4.694;2023-04-30T11:27:28;5.35;;;2.45;;
62724;SDS011;49026;52.600;4.694;2023-04-30T11:29:55;7.18;;;2.53;;
62724;SDS011;49026;52.600;4.694;2023-04-30T11:32:23;9.70;;;2.53;;
62724;SDS011;49026;52.600;4.694;2023-04-30T11:34:51;6.15;;;2.17;;
62724;SDS011;49026;52.600;4.694;2023-04-30T11:37:20;6.43;;;2.30;;
62724;SDS011;49026;52.600;4.694;2023-04-30T11:40:05;4.35;;;1.88;;
62724;SDS011;49026;52.600;4.694;2023-04-30T11:42:35;6.25;;;2.40;;
62724;SDS011;49026;52.600;4.694;2023-04-30T11:45:10;6.47;;;2.15;;
62724;SDS011;49026;52.600;4.694;2023-04-30T11:47:45;7.30;;;2.03;;
62724;SDS011;49026;52.600;4.694;2023-04-30T11:50:18;7.18;;;1.98;;
62724;SDS011;49026;52.600;4.694;2023-04-30T11:52:49;6.35;;;1.92;;
62724;SDS011;49026;52.600;4.694;2023-04-30T11:55:16;6.07;;;2.05;;
62724;SDS011;49026;52.600;4.694;2023-04-30T11:57:43;6.57;;;2.05;;
62724;SDS011;49026;52.600;4.694;2023-04-30T12:00:17;4.70;;;1.98;;
62724;SDS011;49026;52.600;4.694;2023-04-30T12:02:49;8.60;;;1.65;;
62724;SDS011;49026;52.600;4.694;2023-04-30T12:05:15;4.38;;;1.73;;
62724;SDS011;49026;52.600;4.694;2023-04-30T12:07:54;3.97;;;1.40;;
62724;SDS011;49026;52.600;4.694;2023-04-30T12:10:21;3.28;;;1.80;;
62724;SDS011;49026;52.600;4.694;2023-04-30T12:12:52;5.07;;;1.45;;
62724;SDS011;49026;52.600;4.694;2023-04-30T12:15:19;4.90;;;1.67;;
62724;SDS011;49026;52.600;4.694;2023-04-30T12:17:50;4.40;;;1.42;;
62724;SDS011;49026;52.600;4.694;2023-04-30T12:20:16;3.55;;;1.63;;
62724;SDS011;49026;52.600;4.694;2023-04-30T12:22:44;5.38;;;2.10;;
62724;SDS011;49026;52.600;4.694;2023-04-30T12:25:12;5.15;;;2.10;;
62724;SDS011;49026;52.600;4.694;2023-04-30T12:27:47;5.60;;;1.75;;
62724;SDS011;49026;52.600;4.694;2023-04-30T12:30:18;4.65;;;1.40;;
62724;SDS011;49026;52.600;4.694;2023-04-30T12:32:52;5.05;;;1.88;;
62724;SDS011;49026;52.600;4.694;2023-04-30T12:35:21;5.07;;;1.65;;
62724;SDS011;49026;52.600;4.694;2023-04-30T12:37:48;5.00;;;1.92;;
62724;SDS011;49026;52.600;4.694;2023-04-30T12:40:16;3.40;;;1.50;;
62724;SDS011;49026;52.600;4.694;2023-04-30T12:42:42;6.85;;;1.70;;
62724;SDS011;49026;52.600;4.694;2023-04-30T12:45:09;4.63;;;1.70;;
62724;SDS011;49026;52.600;4.694;2023-04-30T12:47:41;4.90;;;1.63;;
62724;SDS011;49026;52.600;4.694;2023-04-30T12:50:08;5.63;;;1.17;;
62724;SDS011;49026;52.600;4.694;2023-04-30T12:52:35;1.52;;;0.98;;
62724;SDS011;49026;52.600;4.694;2023-04-30T12:55:17;4.18;;;1.08;;
62724;SDS011;49026;52.600;4.694;2023-04-30T12:58:02;4.88;;;1.20;;
62724;SDS011;49026;52.600;4.694;2023-04-30T13:03:09;3.85;;;1.67;;
62724;SDS011;49026;52.600;4.694;2023-04-30T13:05:35;2.63;;;1.40;;
62724;SDS011;49026;52.600;4.694;2023-04-30T13:08:02;4.22;;;1.42;;
62724;SDS011;49026;52.600;4.694;2023-04-30T13:10:37;5.65;;;1.63;;
62724;SDS011;49026;52.600;4.694;2023-04-30T13:13:02;4.32;;;1.77;;
62724;SDS011;49026;52.600;4.694;2023-04-30T13:15:27;4.10;;;1.40;;
62724;SDS011;49026;52.600;4.694;2023-04-30T13:17:53;7.03;;;1.83;;
62724;SDS011;49026;52.600;4.694;2023-04-30T13:20:18;2.75;;;1.63;;
62724;SDS011;49026;52.600;4.694;2023-04-30T13:22:43;5.95;;;2.10;;
62724;SDS011;49026;52.600;4.694;2023-04-30T13:25:08;4.65;;;2.05;;
62724;SDS011;49026;52.600;4.694;2023-04-30T13:27:37;7.15;;;1.90;;
62724;SDS011;49026;52.600;4.694;2023-04-30T13:30:02;5.00;;;1.45;;
62724;SDS011;49026;52.600;4.694;2023-04-30T13:32:28;4.05;;;1.40;;
62724;SDS011;49026;52.600;4.694;2023-04-30T13:34:53;5.63;;;1.80;;
62724;SDS011;49026;52.600;4.694;2023-04-30T13:37:20;3.63;;;1.63;;
62724;SDS011;49026;52.600;4.694;2023-04-30T13:39:46;5.43;;;1.73;;
62724;SDS011;49026;52.600;4.694;2023-04-30T13:42:12;5.93;;;1.40;;
62724;SDS011;49026;52.600;4.694;2023-04-30T13:44:38;5.10;;;1.70;;
62724;SDS011;49026;52.600;4.694;2023-04-30T13:47:04;4.30;;;1.75;;
62724;SDS011;49026;52.600;4.694;2023-04-30T13:49:30;4.85;;;1.58;;
62724;SDS011;49026;52.600;4.694;2023-04-30T13:51:55;4.60;;;1.50;;
62724;SDS011;49026;52.600;4.694;2023-04-30T13:54:22;7.07;;;1.40;;
62724;SDS011;49026;52.600;4.694;2023-04-30T13:56:47;4.90;;;1.55;;
62724;SDS011;49026;52.600;4.694;2023-04-30T13:59:15;3.13;;;1.48;;
62724;SDS011;49026;52.600;4.694;2023-04-30T14:01:44;3.67;;;1.42;;
62724;SDS011;49026;52.600;4.694;2023-04-30T14:04:10;7.88;;;1.60;;
62724;SDS011;49026;52.600;4.694;2023-04-30T14:06:39;2.80;;;1.40;;
62724;SDS011;49026;52.600;4.694;2023-04-30T14:09:04;5.93;;;1.85;;
62724;SDS011;49026;52.600;4.694;2023-04-30T14:11:30;4.25;;;1.42;;
62724;SDS011;49026;52.600;4.694;2023-04-30T14:13:56;3.75;;;1.38;;
62724;SDS011;49026;52.600;4.694;2023-04-30T14:16:24;3.67;;;1.48;;
62724;SDS011;49026;52.600;4.694;2023-04-30T14:18:49;3.90;;;1.67;;
62724;SDS011;49026;52.600;4.694;2023-04-30T14:21:15;3.45;;;1.35;;
62724;SDS011;49026;52.600;4.694;2023-04-30T14:23:40;3.00;;;1.30;;
62724;SDS011;49026;52.600;4.694;2023-04-30T14:26:06;5.32;;;1.73;;
62724;SDS011;49026;52.600;4.694;2023-04-30T14:28:31;4.68;;;1.40;;
62724;SDS011;49026;52.600;4.694;2023-04-30T14:30:57;5.95;;;1.75;;
62724;SDS011;49026;52.600;4.694;2023-04-30T14:33:22;4.75;;;1.40;;
62724;SDS011;49026;52.600;4.694;2023-04-30T14:35:47;6.47;;;2.00;;
62724;SDS011;49026;52.600;4.694;2023-04-30T14:38:15;3.30;;;1.60;;
62724;SDS011;49026;52.600;4.694;2023-04-30T14:40:42;2.47;;;1.38;;
62724;SDS011;49026;52.600;4.694;2023-04-30T14:45:35;4.15;;;1.80;;
62724;SDS011;49026;52.600;4.694;2023-04-30T14:48:03;5.70;;;1.90;;
62724;SDS011;49026;52.600;4.694;2023-04-30T14:50:29;3.55;;;1.77;;
62724;SDS011;49026;52.600;4.694;2023-04-30T14:52:55;4.03;;;1.75;;
62724;SDS011;49026;52.600;4.694;2023-04-30T14:55:20;3.58;;;1.60;;
62724;SDS011;49026;52.600;4.694;2023-04-30T14:57:45;6.32;;;1.50;;
62724;SDS011;49026;52.600;4.694;2023-04-30T15:00:11;7.10;;;1.67;;
62724;SDS011;49026;52.600;4.694;2023-04-30T15:02:36;5.55;;;1.63;;
62724;SDS011;49026;52.600;4.694;2023-04-30T15:05:07;5.63;;;1.65;;
62724;SDS011;49026;52.600;4.694;2023-04-30T15:07:33;7.40;;;2.05;;
62724;SDS011;49026;52.600;4.694;2023-04-30T15:09:59;6.05;;;1.52;;
62724;SDS011;49026;52.600;4.694;2023-04-30T15:12:24;6.05;;;1.77;;
62724;SDS011;49026;52.600;4.694;2023-04-30T15:14:49;3.70;;;1.50;;
62724;SDS011;49026;52.600;4.694;2023-04-30T15:17:15;6.32;;;1.48;;
62724;SDS011;49026;52.600;4.694;2023-04-30T15:19:40;2.63;;;1.33;;